createdAt,value
2023-05-20T00:01:26.464Z,12.30
2023-05-20T00:03:54.221Z,12.30
2023-05-20T00:06:22.048Z,12.30
2023-05-20T00:08:49.746Z,12.30
2023-05-20T00:11:17.331Z,12.20
2023-05-20T00:13:48.201Z,12.10
2023-05-20T00:16:18.898Z,12.00
2023-05-20T00:18:46.645Z,11.90
2023-05-20T00:21:14.267Z,11.90
2023-05-20T00:23:42.099Z,11.90
2023-05-20T00:26:09.752Z,11.80
2023-05-20T00:28:37.179Z,11.80
2023-05-20T00:31:05.016Z,11.90
2023-05-20T00:33:32.492Z,11.90
2023-05-20T00:36:00.155Z,11.80
2023-05-20T00:38:27.840Z,11.80
2023-05-20T00:40:56.864Z,11.90
2023-05-20T00:43:25.549Z,11.90
2023-05-20T00:45:57.151Z,11.90
2023-05-20T00:48:25.095Z,11.90
2023-05-20T00:50:53.008Z,11.90
2023-05-20T00:53:21.504Z,11.80
2023-05-20T00:55:49.095Z,11.90
2023-05-20T00:58:17.137Z,11.90
2023-05-20T01:00:44.710Z,11.90
2023-05-20T01:03:12.928Z,11.80
2023-05-20T01:05:42.383Z,11.80
2023-05-20T01:08:10.261Z,11.80
2023-05-20T01:10:42.280Z,11.70
2023-05-20T01:13:15.313Z,11.60
2023-05-20T01:15:48.529Z,11.60
2023-05-20T01:18:26.711Z,11.50
2023-05-20T01:20:56.213Z,11.50
2023-05-20T01:23:23.814Z,11.40
2023-05-20T01:25:51.282Z,11.30
2023-05-20T01:28:19.458Z,11.30
2023-05-20T01:30:55.554Z,11.20
2023-05-20T01:33:25.638Z,11.20
2023-05-20T01:35:54.014Z,11.10
2023-05-20T01:38:24.047Z,11.10
2023-05-20T01:40:52.682Z,11.10
2023-05-20T01:43:21.515Z,11.20
2023-05-20T01:45:49.186Z,11.20
2023-05-20T01:48:17.051Z,11.40
2023-05-20T01:50:47.102Z,11.40
2023-05-20T01:53:14.827Z,11.40
2023-05-20T01:55:42.672Z,11.50
2023-05-20T01:58:10.177Z,11.50
2023-05-20T02:00:38.032Z,11.50
2023-05-20T02:03:05.713Z,11.60
2023-05-20T02:05:33.521Z,11.60
2023-05-20T02:08:04.418Z,11.50
2023-05-20T02:10:31.950Z,11.50
2023-05-20T02:12:59.450Z,11.50
2023-05-20T02:15:27.274Z,11.50
2023-05-20T02:17:55.104Z,11.50
2023-05-20T02:20:27.182Z,11.50
2023-05-20T02:22:54.953Z,11.40
2023-05-20T02:25:22.421Z,11.50
2023-05-20T02:27:49.949Z,11.50
2023-05-20T02:30:17.494Z,11.60
2023-05-20T02:32:45.117Z,11.60
2023-05-20T02:35:12.901Z,11.50
2023-05-20T02:37:40.748Z,11.50
2023-05-20T02:40:09.525Z,11.50
2023-05-20T02:42:38.762Z,11.50
2023-05-20T02:45:07.508Z,11.40
2023-05-20T02:47:35.272Z,11.40
2023-05-20T02:50:03.283Z,11.30
2023-05-20T02:52:30.818Z,11.40
2023-05-20T02:54:58.855Z,11.30
2023-05-20T02:57:28.621Z,11.30
2023-05-20T02:59:59.179Z,11.30
2023-05-20T03:02:26.966Z,11.30
2023-05-20T03:04:54.969Z,11.10
2023-05-20T03:07:22.757Z,11.10
2023-05-20T03:09:50.179Z,11.10
2023-05-20T03:12:18.927Z,11.00
2023-05-20T03:14:46.413Z,11.00
2023-05-20T03:17:14.167Z,10.80
2023-05-20T03:19:44.037Z,10.80
2023-05-20T03:22:11.908Z,10.80
2023-05-20T03:24:39.461Z,10.90
2023-05-20T03:27:07.193Z,11.00
2023-05-20T03:29:36.393Z,11.10
2023-05-20T03:32:04.232Z,11.10
2023-05-20T03:34:32.088Z,11.10
2023-05-20T03:37:03.976Z,11.10
2023-05-20T03:39:34.389Z,11.10
2023-05-20T03:42:02.913Z,11.10
2023-05-20T03:44:30.423Z,11.20
2023-05-20T03:46:57.951Z,11.30
2023-05-20T03:49:25.611Z,11.30
2023-05-20T03:51:56.208Z,11.40
2023-05-20T03:54:23.777Z,11.50
2023-05-20T03:56:53.071Z,11.50
2023-05-20T03:59:22.448Z,11.60
2023-05-20T04:01:50.210Z,11.60
2023-05-20T04:04:17.827Z,11.60
2023-05-20T04:06:46.331Z,11.70
2023-05-20T04:09:15.000Z,11.70
2023-05-20T04:11:42.789Z,11.80
2023-05-20T04:14:11.357Z,11.80
2023-05-20T04:16:39.503Z,11.90
2023-05-20T04:19:07.458Z,11.90
2023-05-20T04:21:35.162Z,11.90
2023-05-20T04:24:05.824Z,11.80
2023-05-20T04:26:33.999Z,11.90
2023-05-20T04:29:04.421Z,11.80
2023-05-20T04:31:33.926Z,11.80
2023-05-20T04:34:02.821Z,11.90
2023-05-20T04:36:31.212Z,12.00
2023-05-20T04:38:59.504Z,12.10
2023-05-20T04:41:27.434Z,12.00
2023-05-20T04:43:59.951Z,12.10
2023-05-20T04:46:27.645Z,12.10
2023-05-20T04:48:55.676Z,12.20
2023-05-20T04:51:23.433Z,12.30
2023-05-20T04:53:53.901Z,12.40
2023-05-20T04:56:21.648Z,12.60
2023-05-20T04:58:49.132Z,12.50
2023-05-20T05:01:16.941Z,12.60
2023-05-20T05:03:44.642Z,12.70
2023-05-20T05:06:12.210Z,12.80
2023-05-20T05:08:39.779Z,12.90
2023-05-20T05:11:07.597Z,12.90
2023-05-20T05:13:35.146Z,13.00
2023-05-20T05:16:03.738Z,13.00
2023-05-20T05:18:32.912Z,13.00
2023-05-20T05:21:05.055Z,12.90
2023-05-20T05:23:36.090Z,13.00
2023-05-20T05:26:04.067Z,13.10
2023-05-20T05:28:31.578Z,13.10
2023-05-20T05:30:59.715Z,13.20
2023-05-20T05:33:27.352Z,13.30
2023-05-20T05:35:59.329Z,13.30
2023-05-20T05:38:27.568Z,13.30
2023-05-20T05:40:58.620Z,13.20
2023-05-20T05:43:26.143Z,13.20
2023-05-20T05:45:54.346Z,13.20
2023-05-20T05:48:25.873Z,13.30
2023-05-20T05:50:53.459Z,13.30
2023-05-20T05:53:22.226Z,13.20
2023-05-20T05:55:50.286Z,13.20
2023-05-20T05:58:18.718Z,13.20
2023-05-20T06:00:46.799Z,13.20
2023-05-20T06:03:14.844Z,13.20
2023-05-20T06:05:54.491Z,13.30
2023-05-20T06:08:22.055Z,13.40
2023-05-20T06:10:50.344Z,13.40
2023-05-20T06:13:18.646Z,13.50
2023-05-20T06:15:46.517Z,13.70
2023-05-20T06:18:14.056Z,13.70
2023-05-20T06:20:41.724Z,13.80
2023-05-20T06:23:09.410Z,14.00
2023-05-20T06:26:01.231Z,14.30
2023-05-20T06:28:30.798Z,14.50
2023-05-20T06:30:58.537Z,14.60
2023-05-20T06:33:28.705Z,14.60
2023-05-20T06:36:02.034Z,14.80
2023-05-20T06:38:32.037Z,15.00
2023-05-20T06:40:59.589Z,15.10
2023-05-20T06:43:27.564Z,15.00
2023-05-20T06:46:04.930Z,14.90
2023-05-20T06:48:42.541Z,15.00
2023-05-20T06:51:13.281Z,15.20
2023-05-20T06:53:41.914Z,15.30
2023-05-20T06:56:09.360Z,15.20
2023-05-20T06:58:37.626Z,15.20
2023-05-20T07:01:05.748Z,15.10
2023-05-20T07:03:33.784Z,15.10
2023-05-20T07:06:01.359Z,15.20
2023-05-20T07:08:29.258Z,15.20
2023-05-20T07:10:57.349Z,15.50
2023-05-20T07:13:26.440Z,15.50
2023-05-20T07:15:54.117Z,15.90
2023-05-20T07:18:21.967Z,16.20
2023-05-20T07:20:53.775Z,16.40
2023-05-20T07:23:47.502Z,16.60
2023-05-20T07:26:16.694Z,16.20
2023-05-20T07:28:45.766Z,16.10
2023-05-20T07:31:13.432Z,16.00
2023-05-20T07:33:45.342Z,16.10
2023-05-20T07:36:13.222Z,16.20
2023-05-20T07:38:53.073Z,16.00
2023-05-20T07:41:30.634Z,16.30
2023-05-20T07:43:58.515Z,16.30
2023-05-20T07:46:26.545Z,16.60
2023-05-20T07:48:54.088Z,16.80
2023-05-20T07:51:21.766Z,17.00
2023-05-20T07:53:49.810Z,18.30
2023-05-20T07:56:17.948Z,19.40
2023-05-20T07:58:53.825Z,18.90
2023-05-20T08:01:22.292Z,18.40
2023-05-20T08:03:50.838Z,17.80
2023-05-20T08:06:22.000Z,17.50
2023-05-20T08:08:50.218Z,17.00
2023-05-20T08:11:24.304Z,16.90
2023-05-20T08:13:53.047Z,16.90
2023-05-20T08:16:25.356Z,17.60
2023-05-20T08:18:53.433Z,18.80
2023-05-20T08:21:25.158Z,18.90
2023-05-20T08:23:52.703Z,18.10
2023-05-20T08:26:20.311Z,17.60
2023-05-20T08:28:48.704Z,17.60
2023-05-20T08:31:20.366Z,17.40
2023-05-20T08:33:47.975Z,17.10
2023-05-20T08:36:16.469Z,18.20
2023-05-20T08:38:44.670Z,18.50
2023-05-20T08:41:12.882Z,18.50
2023-05-20T08:43:44.775Z,20.10
2023-05-20T08:46:12.798Z,21.10
2023-05-20T08:48:40.525Z,21.80
2023-05-20T08:51:11.330Z,21.70
2023-05-20T08:53:42.431Z,21.50
2023-05-20T08:56:11.705Z,21.00
2023-05-20T08:58:39.303Z,20.10
2023-05-20T09:01:07.998Z,19.70
2023-05-20T09:03:35.583Z,19.10
2023-05-20T09:06:09.172Z,19.10
2023-05-20T09:08:37.440Z,19.80
2023-05-20T09:11:05.114Z,20.50
2023-05-20T09:13:35.391Z,19.80
2023-05-20T09:16:03.587Z,20.40
2023-05-20T09:18:31.651Z,20.90
2023-05-20T09:21:06.902Z,21.10
2023-05-20T09:23:38.369Z,21.10
2023-05-20T09:26:06.335Z,20.90
2023-05-20T09:28:36.159Z,20.60
2023-05-20T09:31:05.722Z,20.70
2023-05-20T09:33:35.747Z,20.70
2023-05-20T09:36:10.279Z,20.60
2023-05-20T09:38:39.985Z,20.30
2023-05-20T09:41:11.682Z,20.00
2023-05-20T09:43:40.943Z,19.50
2023-05-20T09:46:10.095Z,19.60
2023-05-20T09:48:37.951Z,19.60
2023-05-20T09:51:07.331Z,19.60
2023-05-20T09:53:36.311Z,19.70
2023-05-20T09:56:04.389Z,19.50
2023-05-20T09:58:35.850Z,19.10
2023-05-20T10:01:03.992Z,18.90
2023-05-20T10:03:33.602Z,19.20
2023-05-20T10:06:46.480Z,19.60
2023-05-20T10:09:42.915Z,20.10
2023-05-20T10:12:48.168Z,19.80
2023-05-20T10:15:38.783Z,20.20
2023-05-20T10:18:35.129Z,20.10
2023-05-20T10:21:02.731Z,20.10
2023-05-20T10:23:31.354Z,20.10
2023-05-20T10:25:59.201Z,20.00
2023-05-20T10:28:33.084Z,20.40
2023-05-20T10:31:01.233Z,20.70
2023-05-20T10:33:30.013Z,20.70
2023-05-20T10:36:01.221Z,20.50
2023-05-20T10:38:28.795Z,20.40
2023-05-20T10:40:57.512Z,20.70
2023-05-20T10:43:29.046Z,21.10
2023-05-20T10:45:58.396Z,21.10
2023-05-20T10:48:34.286Z,21.40
2023-05-20T10:51:06.616Z,21.50
2023-05-20T10:53:41.635Z,21.10
2023-05-20T10:56:19.751Z,21.40
2023-05-20T10:58:48.002Z,21.20
2023-05-20T11:01:20.104Z,21.40
2023-05-20T11:03:49.386Z,21.20
2023-05-20T11:06:26.157Z,21.40
2023-05-20T11:08:53.783Z,21.30
2023-05-20T11:11:26.662Z,21.60
2023-05-20T11:13:57.470Z,21.50
2023-05-20T11:16:25.535Z,21.40
2023-05-20T11:18:53.311Z,21.50
2023-05-20T11:21:20.971Z,21.30
2023-05-20T11:23:52.114Z,21.70
2023-05-20T11:26:21.427Z,21.80
2023-05-20T11:28:52.020Z,22.00
2023-05-20T11:31:19.601Z,22.00
2023-05-20T11:33:47.140Z,22.20
2023-05-20T11:36:27.450Z,22.30
2023-05-20T11:38:58.773Z,22.20
2023-05-20T11:41:28.132Z,21.90
2023-05-20T11:43:58.539Z,21.80
2023-05-20T11:46:26.437Z,21.90
2023-05-20T11:48:55.203Z,22.20
2023-05-20T11:51:29.569Z,22.20
2023-05-20T11:54:04.157Z,22.40
2023-05-20T11:56:37.255Z,22.30
2023-05-20T11:59:09.791Z,22.20
2023-05-20T12:01:44.146Z,22.30
2023-05-20T12:04:13.890Z,22.70
2023-05-20T12:06:43.338Z,22.70
2023-05-20T12:09:11.562Z,23.00
2023-05-20T12:11:41.680Z,22.80
2023-05-20T12:14:09.806Z,22.70
2023-05-20T12:16:38.174Z,22.30
2023-05-20T12:19:05.990Z,22.70
2023-05-20T12:21:33.556Z,22.80
2023-05-20T12:24:01.276Z,22.70
2023-05-20T12:26:29.764Z,23.00
2023-05-20T12:28:57.722Z,23.20
2023-05-20T12:31:26.126Z,23.00
2023-05-20T12:33:53.633Z,23.00
2023-05-20T12:36:21.586Z,23.00
2023-05-20T12:38:49.277Z,23.40
2023-05-20T12:41:18.649Z,23.50
2023-05-20T12:43:46.101Z,23.50
2023-05-20T12:46:13.730Z,23.80
2023-05-20T12:48:42.547Z,24.20
2023-05-20T12:51:10.258Z,23.90
2023-05-20T12:53:37.747Z,23.00
2023-05-20T12:56:06.194Z,23.10
2023-05-20T12:58:34.822Z,22.70
2023-05-20T13:01:05.540Z,22.80
2023-05-20T13:03:33.294Z,23.00
2023-05-20T13:06:00.962Z,22.80
2023-05-20T13:08:28.863Z,22.50
2023-05-20T13:10:56.498Z,22.60
2023-05-20T13:13:24.584Z,23.30
2023-05-20T13:15:55.123Z,23.80
2023-05-20T13:18:22.724Z,23.70
2023-05-20T13:20:50.608Z,23.40
2023-05-20T13:23:18.195Z,23.20
2023-05-20T13:25:45.621Z,22.80
2023-05-20T13:28:16.715Z,22.70
2023-05-20T13:30:44.544Z,22.40
2023-05-20T13:33:12.160Z,21.80
2023-05-20T13:35:39.447Z,21.30
2023-05-20T13:38:06.738Z,21.70
2023-05-20T13:40:34.402Z,22.30
2023-05-20T13:43:01.930Z,22.60
2023-05-20T13:45:29.799Z,22.30
2023-05-20T13:47:57.665Z,21.80
2023-05-20T13:50:25.773Z,21.50
2023-05-20T13:52:53.121Z,21.40
2023-05-20T13:55:21.794Z,21.40
2023-05-20T13:57:50.337Z,21.40
2023-05-20T14:00:17.933Z,21.40
2023-05-20T14:02:48.143Z,21.20
2023-05-20T14:05:15.472Z,21.30
2023-05-20T14:07:42.699Z,21.40
2023-05-20T14:10:11.540Z,21.60
2023-05-20T14:12:39.101Z,21.70
2023-05-20T14:15:06.998Z,21.80
2023-05-20T14:17:34.293Z,21.90
2023-05-20T14:20:01.754Z,21.90
2023-05-20T14:22:29.046Z,21.60
2023-05-20T14:24:56.811Z,21.50
2023-05-20T14:27:24.329Z,21.30
2023-05-20T14:29:51.675Z,21.20
2023-05-20T14:32:19.117Z,21.10
2023-05-20T14:34:46.691Z,21.00
2023-05-20T14:37:15.514Z,21.00
2023-05-20T14:39:42.946Z,21.20
2023-05-20T14:42:10.302Z,21.20
2023-05-20T14:44:38.045Z,21.10
2023-05-20T14:47:07.965Z,21.20
2023-05-20T14:49:36.857Z,21.20
2023-05-20T14:52:04.546Z,21.30
2023-05-20T14:54:31.948Z,21.30
2023-05-20T14:57:00.061Z,21.40
2023-05-20T14:59:27.662Z,21.40
2023-05-20T15:01:55.120Z,21.50
2023-05-20T15:04:22.792Z,21.40
2023-05-20T15:06:50.551Z,21.30
2023-05-20T15:09:17.974Z,21.20
2023-05-20T15:11:45.581Z,21.10
2023-05-20T15:14:13.075Z,21.10
2023-05-20T15:16:40.526Z,21.10
2023-05-20T15:19:08.011Z,21.10
2023-05-20T15:21:36.046Z,21.10
2023-05-20T15:24:03.510Z,21.20
2023-05-20T15:26:31.881Z,21.10
2023-05-20T15:28:59.418Z,21.00
2023-05-20T15:31:27.001Z,21.00
2023-05-20T15:33:55.845Z,20.90
2023-05-20T15:36:23.339Z,20.80
2023-05-20T15:38:50.806Z,20.70
2023-05-20T15:41:18.453Z,20.70
2023-05-20T15:43:48.819Z,20.70
2023-05-20T15:46:17.886Z,20.70
2023-05-20T15:48:45.823Z,20.90
2023-05-20T15:51:15.802Z,21.10
2023-05-20T15:53:43.461Z,21.40
2023-05-20T15:56:14.036Z,21.60
2023-05-20T15:58:41.588Z,21.40
2023-05-20T16:01:09.135Z,21.20
2023-05-20T16:03:36.522Z,21.10
2023-05-20T16:06:04.179Z,21.10
2023-05-20T16:08:31.556Z,21.00
2023-05-20T16:10:59.122Z,20.90
2023-05-20T16:13:26.951Z,20.80
2023-05-20T16:15:57.857Z,20.90
2023-05-20T16:18:28.535Z,21.00
2023-05-20T16:20:59.071Z,21.10
2023-05-20T16:23:27.104Z,21.40
2023-05-20T16:25:54.550Z,21.40
2023-05-20T16:28:24.697Z,21.20
2023-05-20T16:30:55.295Z,21.20
2023-05-20T16:33:22.767Z,21.20
2023-05-20T16:35:51.661Z,21.00
2023-05-20T16:38:19.438Z,21.10
2023-05-20T16:40:51.339Z,21.20
2023-05-20T16:43:18.825Z,21.50
2023-05-20T16:45:51.672Z,21.50
2023-05-20T16:48:19.034Z,21.50
2023-05-20T16:50:46.992Z,21.20
2023-05-20T16:53:17.310Z,21.10
2023-05-20T16:55:44.597Z,20.70
2023-05-20T16:58:12.987Z,20.40
2023-05-20T17:00:41.269Z,20.20
2023-05-20T17:03:09.823Z,20.00
2023-05-20T17:05:37.242Z,20.00
2023-05-20T17:08:05.729Z,20.00
2023-05-20T17:10:33.491Z,20.00
2023-05-20T17:13:01.959Z,19.90
2023-05-20T17:15:29.856Z,20.00
2023-05-20T17:17:57.939Z,19.90
2023-05-20T17:20:25.746Z,19.90
2023-05-20T17:22:53.800Z,19.80
2023-05-20T17:25:23.876Z,19.70
2023-05-20T17:27:51.737Z,19.60
2023-05-20T17:30:19.496Z,19.50
2023-05-20T17:32:47.142Z,19.40
2023-05-20T17:35:14.869Z,19.40
2023-05-20T17:37:42.678Z,19.40
2023-05-20T17:40:11.400Z,19.40
2023-05-20T17:42:39.702Z,19.10
2023-05-20T17:45:08.126Z,19.10
2023-05-20T17:47:36.514Z,19.00
2023-05-20T17:50:06.038Z,18.90
2023-05-20T17:52:34.499Z,18.90
2023-05-20T17:55:02.425Z,18.80
2023-05-20T17:57:29.936Z,18.70
2023-05-20T17:59:57.874Z,18.50
2023-05-20T18:02:25.721Z,18.60
2023-05-20T18:04:53.916Z,18.40
2023-05-20T18:07:21.733Z,18.40
2023-05-20T18:09:49.629Z,18.20
2023-05-20T18:12:18.349Z,18.20
2023-05-20T18:14:46.271Z,18.10
2023-05-20T18:17:13.654Z,17.90
2023-05-20T18:19:41.033Z,17.90
2023-05-20T18:22:09.968Z,17.90
2023-05-20T18:24:37.579Z,17.70
2023-05-20T18:27:05.238Z,17.60
2023-05-20T18:29:32.806Z,17.60
2023-05-20T18:32:00.290Z,17.60
2023-05-20T18:34:28.407Z,17.50
2023-05-20T18:36:56.245Z,17.40
2023-05-20T18:39:23.748Z,17.30
2023-05-20T18:41:51.567Z,17.30
2023-05-20T18:44:19.632Z,17.20
2023-05-20T18:46:49.726Z,17.10
2023-05-20T18:49:17.171Z,17.10
2023-05-20T18:51:44.801Z,17.00
2023-05-20T18:54:12.395Z,16.90
2023-05-20T18:56:39.800Z,16.80
2023-05-20T18:59:07.359Z,16.80
2023-05-20T19:01:36.671Z,16.70
2023-05-20T19:04:04.476Z,16.60
2023-05-20T19:06:35.347Z,16.50
2023-05-20T19:09:03.605Z,16.40
2023-05-20T19:11:31.261Z,16.40
2023-05-20T19:13:59.088Z,16.40
2023-05-20T19:16:26.978Z,16.40
2023-05-20T19:18:54.515Z,16.40
2023-05-20T19:21:21.940Z,16.40
2023-05-20T19:23:50.116Z,16.40
2023-05-20T19:26:20.193Z,16.30
2023-05-20T19:28:47.547Z,16.20
2023-05-20T19:31:21.502Z,16.00
2023-05-20T19:33:51.641Z,15.90
2023-05-20T19:36:19.266Z,15.90
2023-05-20T19:38:52.169Z,15.90
2023-05-20T19:41:19.699Z,15.90
2023-05-20T19:43:47.116Z,15.80
2023-05-20T19:46:15.445Z,15.70
2023-05-20T19:48:42.864Z,15.60
2023-05-20T19:51:10.866Z,15.60
2023-05-20T19:53:38.745Z,15.50
2023-05-20T19:56:07.922Z,15.50
2023-05-20T19:58:35.395Z,15.40
2023-05-20T20:01:04.620Z,15.30
2023-05-20T20:03:34.163Z,15.20
2023-05-20T20:06:01.647Z,15.20
2023-05-20T20:08:29.103Z,15.20
2023-05-20T20:10:56.500Z,15.20
2023-05-20T20:13:23.846Z,15.10
2023-05-20T20:15:54.212Z,15.10
2023-05-20T20:18:24.684Z,15.10
2023-05-20T20:20:52.087Z,15.10
2023-05-20T20:23:22.230Z,15.10
2023-05-20T20:25:50.693Z,15.10
2023-05-20T20:28:18.576Z,15.00
2023-05-20T20:30:45.955Z,14.80
2023-05-20T20:33:13.444Z,14.80
2023-05-20T20:35:41.452Z,14.70
2023-05-20T20:38:09.966Z,14.60
2023-05-20T20:40:45.224Z,14.70
2023-05-20T20:43:21.510Z,14.60
2023-05-20T20:45:51.046Z,14.50
2023-05-20T20:48:19.066Z,14.40
2023-05-20T20:50:52.318Z,14.40
2023-05-20T20:53:19.851Z,14.30
2023-05-20T20:55:47.332Z,14.30
2023-05-20T20:58:15.722Z,14.20
2023-05-20T21:00:45.205Z,14.10
2023-05-20T21:03:15.112Z,14.10
2023-05-20T21:05:44.842Z,14.00
2023-05-20T21:08:15.900Z,14.00
2023-05-20T21:10:43.468Z,14.00
2023-05-20T21:13:11.106Z,13.90
2023-05-20T21:15:38.592Z,13.90
2023-05-20T21:18:08.635Z,13.90
2023-05-20T21:20:47.872Z,13.80
2023-05-20T21:23:15.580Z,13.80
2023-05-20T21:25:43.308Z,13.70
2023-05-20T21:28:11.082Z,13.70
2023-05-20T21:30:38.684Z,13.60
2023-05-20T21:33:06.168Z,13.50
2023-05-20T21:35:33.779Z,13.40
2023-05-20T21:38:03.626Z,13.30
2023-05-20T21:40:31.009Z,13.30
2023-05-20T21:42:58.414Z,13.40
2023-05-20T21:45:25.934Z,13.50
2023-05-20T21:47:56.460Z,13.50
2023-05-20T21:50:24.035Z,13.40
2023-05-20T21:52:51.490Z,13.40
2023-05-20T21:55:25.721Z,13.30
2023-05-20T21:57:53.113Z,13.30
2023-05-20T22:00:20.773Z,13.20
2023-05-20T22:02:51.027Z,13.10
2023-05-20T22:05:18.519Z,13.10
2023-05-20T22:07:45.981Z,13.00
2023-05-20T22:10:17.679Z,12.90
2023-05-20T22:12:45.163Z,12.80
2023-05-20T22:15:12.522Z,12.70
2023-05-20T22:17:40.334Z,12.80
2023-05-20T22:20:08.686Z,12.70
2023-05-20T22:22:36.274Z,12.70
2023-05-20T22:25:03.812Z,12.70
2023-05-20T22:27:31.857Z,12.70
2023-05-20T22:29:59.481Z,12.70
2023-05-20T22:32:26.873Z,12.80
2023-05-20T22:34:58.540Z,12.70
2023-05-20T22:37:26.832Z,12.70
2023-05-20T22:39:57.730Z,12.70
2023-05-20T22:42:25.226Z,12.70
2023-05-20T22:44:52.645Z,12.80
2023-05-20T22:47:20.010Z,12.80
2023-05-20T22:49:47.827Z,12.70
2023-05-20T22:52:15.310Z,12.60
2023-05-20T22:54:43.299Z,12.60
2023-05-20T22:57:13.362Z,12.50
2023-05-20T22:59:40.992Z,12.50
2023-05-20T23:02:08.356Z,12.50
2023-05-20T23:04:35.796Z,12.60
2023-05-20T23:07:03.201Z,12.50
2023-05-20T23:09:30.691Z,12.50
2023-05-20T23:11:58.045Z,12.60
2023-05-20T23:14:25.365Z,12.70
2023-05-20T23:16:52.651Z,12.60
2023-05-20T23:19:20.305Z,12.60
2023-05-20T23:21:47.631Z,12.50
2023-05-20T23:24:16.849Z,12.40
2023-05-20T23:26:44.406Z,12.40
2023-05-20T23:29:14.739Z,12.40
2023-05-20T23:31:44.348Z,12.30
2023-05-20T23:34:12.041Z,12.30
2023-05-20T23:36:42.160Z,12.20
2023-05-20T23:39:09.581Z,12.10
2023-05-20T23:41:37.142Z,12.10
2023-05-20T23:44:04.529Z,12.10
2023-05-20T23:46:32.056Z,12.00
2023-05-20T23:49:02.133Z,12.00
2023-05-20T23:51:29.884Z,11.90
2023-05-20T23:53:57.495Z,11.90
2023-05-20T23:56:24.875Z,11.80
2023-05-20T23:58:52.289Z,11.80
